Time;durP1;ratioP1;P1;durP2;ratioP2;P2;SDS_P1;SDS_P2;PMS_P1;PMS_P2;Temp;Humidity;BMP_temperature;BMP_pressure;BME280_temperature;BME280_humidity;BME280_pressure;Samples;Min_cycle;Max_cycle;Signal;HPM_P1;HPM_P2
2022/11/17 00:00:24;;;;;;;8.20;7.22;;;8.90;99.90;;;;;;5115226;28;20110;-70
2022/11/17 00:02:49;;;;;;;9.60;6.93;;;8.90;99.90;;;;;;5114055;28;20114;-70
2022/11/17 00:05:15;;;;;;;10.18;7.93;;;8.90;99.90;;;;;;5114477;28;20531;-70
2022/11/17 00:07:43;;;;;;;10.98;8.40;;;8.90;99.90;;;;;;5113054;28;20372;-71
2022/11/17 00:10:10;;;;;;;9.00;7.82;;;8.90;99.90;;;;;;5114953;28;20032;-70
2022/11/17 00:15:20;;;;;;;9.20;7.63;;;8.90;99.90;;;;;;5114553;28;20094;-70
2022/11/17 00:17:47;;;;;;;9.27;7.45;;;8.90;99.90;;;;;;5113761;28;20032;-70
2022/11/17 00:22:58;;;;;;;8.60;7.53;;;8.90;99.90;;;;;;5114604;28;20034;-70
2022/11/17 00:25:23;;;;;;;9.77;7.72;;;8.90;99.90;;;;;;5114058;28;20019;-70
2022/11/17 00:27:49;;;;;;;9.32;8.15;;;8.90;99.90;;;;;;5113920;28;20046;-70
2022/11/17 00:34:03;;;;;;;9.30;7.97;;;8.80;99.90;;;;;;5113993;28;20039;-71
2022/11/17 00:35:53;;;;;;;9.00;7.72;;;8.80;99.90;;;;;;5113912;28;20058;-70
2022/11/17 00:38:19;;;;;;;8.80;7.90;;;8.90;99.90;;;;;;5114547;28;20066;-70
2022/11/17 00:40:45;;;;;;;10.40;7.97;;;8.90;99.90;;;;;;5113529;28;20411;-70
2022/11/17 00:43:10;;;;;;;9.48;7.82;;;8.80;99.90;;;;;;5114242;28;20027;-70
2022/11/17 00:45:36;;;;;;;9.60;8.10;;;8.80;99.90;;;;;;5114055;28;20031;-70
2022/11/17 00:48:04;;;;;;;8.82;7.80;;;8.90;99.90;;;;;;5113763;28;20513;-69
2022/11/17 00:50:29;;;;;;;8.95;8.00;;;8.90;99.90;;;;;;5113656;28;20027;-70
2022/11/17 00:52:55;;;;;;;9.23;8.15;;;8.90;99.90;;;;;;5112671;28;20031;-69
2022/11/17 00:55:20;;;;;;;9.43;8.20;;;8.90;99.90;;;;;;5113632;28;20024;-70
2022/11/17 00:57:46;;;;;;;11.32;8.68;;;8.90;99.90;;;;;;5111615;28;20043;-70
2022/11/17 01:00:12;;;;;;;9.20;7.97;;;8.90;99.90;;;;;;5113223;28;20027;-70
2022/11/17 01:02:37;;;;;;;10.55;8.40;;;8.90;99.90;;;;;;5112937;28;20495;-71
2022/11/17 01:05:03;;;;;;;8.60;7.70;;;8.90;99.90;;;;;;5113699;28;20483;-69
2022/11/17 01:07:29;;;;;;;9.10;8.02;;;8.90;99.90;;;;;;5113612;28;20074;-71
2022/11/17 01:09:54;;;;;;;10.68;8.73;;;8.90;99.90;;;;;;5112744;28;20063;-70
2022/11/17 01:12:20;;;;;;;9.98;8.25;;;8.90;99.90;;;;;;5113185;28;20055;-69
2022/11/17 01:14:46;;;;;;;12.93;8.52;;;8.90;99.90;;;;;;5112896;28;20027;-69
2022/11/17 01:17:11;;;;;;;9.10;8.00;;;8.90;99.90;;;;;;5112984;28;20024;-69
2022/11/17 01:19:37;;;;;;;11.30;8.23;;;8.90;99.90;;;;;;5112764;28;20080;-70
2022/11/17 01:22:02;;;;;;;10.57;8.50;;;8.90;99.90;;;;;;5112972;28;20024;-69
2022/11/17 01:24:28;;;;;;;10.93;8.13;;;8.90;99.90;;;;;;5113612;28;20028;-68
2022/11/17 01:26:54;;;;;;;9.25;7.70;;;8.90;99.90;;;;;;5112663;28;20673;-69
2022/11/17 01:29:20;;;;;;;8.65;7.55;;;8.90;99.90;;;;;;5112922;28;20022;-68
2022/11/17 01:31:50;;;;;;;8.93;8.00;;;8.90;99.90;;;;;;5112614;28;20098;-71
2022/11/17 01:34:15;;;;;;;9.90;8.82;;;8.90;99.90;;;;;;5112926;28;20062;-70
2022/11/17 01:39:28;;;;;;;10.15;8.73;;;8.80;99.90;;;;;;5113242;28;20455;-71
2022/11/17 01:41:54;;;;;;;12.75;9.40;;;8.80;99.90;;;;;;5112516;28;20059;-70
2022/11/17 01:45:11;;;;;;;11.57;9.05;;;8.80;99.90;;;;;;5112461;28;20096;-70
2022/11/17 01:47:50;;;;;;;12.57;9.65;;;8.80;99.90;;;;;;5085957;28;20035;-72
2022/11/17 01:50:34;;;;;;;10.93;9.32;;;8.80;99.90;;;;;;5112551;28;20468;-71
2022/11/17 01:53:04;;;;;;;12.65;9.27;;;8.80;99.90;;;;;;5112609;28;20111;-70
2022/11/17 01:55:50;;;;;;;11.82;9.43;;;8.70;99.90;;;;;;5112630;28;20440;-69
2022/11/17 01:58:33;;;;;;;12.43;9.55;;;8.70;99.90;;;;;;5112803;28;20068;-70
2022/11/17 02:00:59;;;;;;;11.23;9.45;;;8.70;99.90;;;;;;5112436;28;20028;-70
2022/11/17 02:03:26;;;;;;;11.70;9.13;;;8.70;99.90;;;;;;5112950;28;20047;-70
2022/11/17 02:05:55;;;;;;;11.43;9.27;;;8.70;99.90;;;;;;5111336;28;20020;-70
2022/11/17 02:08:24;;;;;;;11.65;9.35;;;8.60;99.90;;;;;;5112579;28;20024;-70
2022/11/17 02:10:51;;;;;;;13.25;10.05;;;8.60;99.90;;;;;;5112647;28;20027;-70
2022/11/17 02:13:18;;;;;;;13.50;9.85;;;8.60;99.90;;;;;;5112754;28;20054;-70
2022/11/17 02:15:44;;;;;;;12.65;9.90;;;8.70;99.90;;;;;;5111874;28;20392;-70
2022/11/17 02:18:10;;;;;;;12.90;10.38;;;8.60;99.90;;;;;;5112793;28;20024;-70
2022/11/17 02:20:50;;;;;;;14.05;10.10;;;8.70;99.90;;;;;;5111159;28;20026;-70
2022/11/17 02:23:53;;;;;;;14.23;10.05;;;8.60;99.90;;;;;;5112244;28;20038;-69
2022/11/17 02:26:49;;;;;;;13.35;10.10;;;8.60;99.90;;;;;;5112386;28;20422;-69
2022/11/17 02:29:41;;;;;;;14.50;10.23;;;8.60;99.90;;;;;;5112216;28;20479;-70
2022/11/17 02:32:11;;;;;;;16.15;10.82;;;8.60;99.90;;;;;;5112348;28;20035;-69
2022/11/17 02:35:03;;;;;;;11.57;9.88;;;8.60;99.90;;;;;;5112474;28;20047;-70
2022/11/17 02:37:50;;;;;;;13.77;10.68;;;8.60;99.90;;;;;;5112918;28;20038;-70
2022/11/17 02:40:25;;;;;;;14.57;10.32;;;8.60;99.90;;;;;;5112623;28;20020;-70
2022/11/17 02:45:57;;;;;;;13.88;11.25;;;8.60;99.90;;;;;;5111102;28;20383;-70
2022/11/17 02:48:31;;;;;;;16.38;11.93;;;8.60;99.90;;;;;;5112413;28;20073;-70
2022/11/17 02:50:58;;;;;;;17.08;11.98;;;8.60;99.90;;;;;;5111254;28;20028;-70
2022/11/17 02:53:25;;;;;;;15.10;11.70;;;8.60;99.90;;;;;;5112196;28;20066;-70
2022/11/17 02:55:52;;;;;;;15.55;11.20;;;8.60;99.90;;;;;;5111723;28;20503;-70
2022/11/17 02:58:18;;;;;;;14.45;11.48;;;8.60;99.90;;;;;;5111886;28;20063;-70
2022/11/17 03:01:15;;;;;;;14.02;10.57;;;8.60;99.90;;;;;;5112024;28;20027;-71
2022/11/17 03:03:58;;;;;;;15.00;11.27;;;8.60;99.90;;;;;;5111936;28;20464;-84
2022/11/17 03:06:39;;;;;;;13.73;10.77;;;8.60;99.90;;;;;;5110845;28;20490;-70
2022/11/17 03:09:33;;;;;;;20.25;11.32;;;8.60;99.90;;;;;;5111737;28;20028;-70
2022/11/17 03:12:06;;;;;;;17.40;11.93;;;8.60;99.90;;;;;;5112109;28;20035;-70
2022/11/17 03:14:57;;;;;;;15.02;10.95;;;8.60;99.90;;;;;;5110967;28;20380;-70
2022/11/17 03:17:47;;;;;;;16.45;10.98;;;8.60;99.90;;;;;;5114271;28;20028;-70
2022/11/17 03:20:26;;;;;;;14.98;11.57;;;8.60;99.90;;;;;;5116097;28;20035;-70
2022/11/17 03:23:05;;;;;;;15.40;11.35;;;8.60;99.90;;;;;;5115112;28;20352;-71
2022/11/17 03:25:33;;;;;;;14.82;11.30;;;8.60;99.90;;;;;;5115915;28;20027;-70
2022/11/17 03:28:04;;;;;;;15.13;10.63;;;8.60;99.90;;;;;;5113888;28;20427;-70
2022/11/17 03:30:31;;;;;;;12.23;9.63;;;8.60;99.90;;;;;;5115625;28;20051;-70
2022/11/17 03:33:04;;;;;;;17.20;10.00;;;8.60;99.90;;;;;;5114637;28;20413;-71
2022/11/17 03:35:33;;;;;;;12.23;9.55;;;8.60;99.90;;;;;;5115326;28;20075;-70
2022/11/17 03:38:07;;;;;;;13.93;9.88;;;8.70;99.90;;;;;;5114645;28;20437;-70
2022/11/17 03:40:34;;;;;;;12.90;8.90;;;8.70;99.90;;;;;;5115384;28;20076;-70
2022/11/17 03:43:05;;;;;;;12.63;9.15;;;8.70;99.90;;;;;;5114924;28;20451;-70
2022/11/17 03:45:33;;;;;;;10.60;8.27;;;8.70;99.90;;;;;;5115496;28;20448;-70
2022/11/17 03:48:06;;;;;;;13.57;9.02;;;8.70;99.90;;;;;;5114214;28;20031;-70
2022/11/17 03:50:36;;;;;;;13.95;7.95;;;8.70;99.90;;;;;;5115253;28;20036;-70
2022/11/17 03:53:03;;;;;;;11.38;9.10;;;8.70;99.90;;;;;;5114413;28;20028;-69
2022/11/17 03:56:01;;;;;;;11.43;8.55;;;8.70;99.90;;;;;;5114931;28;20031;-70
2022/11/17 03:58:31;;;;;;;11.80;9.18;;;8.70;99.90;;;;;;5093169;27;20035;-69
2022/11/17 04:01:00;;;;;;;11.25;8.52;;;8.70;99.90;;;;;;5114162;28;20460;-69
2022/11/17 04:03:31;;;;;;;12.05;9.05;;;8.70;99.90;;;;;;5114950;28;20089;-70
2022/11/17 04:05:56;;;;;;;10.90;8.88;;;8.70;99.90;;;;;;5114264;28;20030;-69
2022/11/17 04:08:24;;;;;;;10.60;8.52;;;8.70;99.90;;;;;;5115078;28;20024;-70
2022/11/17 04:16:18;;;;;;;13.57;9.05;;;8.70;99.90;;;;;;5115011;28;20030;-70
2022/11/17 04:18:44;;;;;;;12.57;8.70;;;8.80;99.90;;;;;;5114526;28;20114;-71
2022/11/17 04:21:10;;;;;;;11.25;8.27;;;8.80;99.90;;;;;;5113984;28;20024;-70
2022/11/17 04:23:35;;;;;;;10.00;8.05;;;8.80;99.90;;;;;;5114260;28;20027;-70
2022/11/17 04:28:48;;;;;;;10.95;8.18;;;8.70;99.90;;;;;;5113136;28;20042;-69
2022/11/17 04:31:26;;;;;;;11.60;8.70;;;8.70;99.90;;;;;;5113999;28;20027;-70
2022/11/17 04:33:57;;;;;;;11.93;8.60;;;8.70;99.90;;;;;;5112395;28;20080;-71
2022/11/17 04:36:26;;;;;;;12.65;9.50;;;8.70;99.90;;;;;;5114148;28;20028;-70
2022/11/17 04:38:53;;;;;;;13.05;9.13;;;8.70;99.90;;;;;;5113639;28;20113;-70
2022/11/17 04:44:07;;;;;;;10.98;8.85;;;8.70;99.90;;;;;;5113783;28;20101;-70
2022/11/17 04:46:35;;;;;;;9.85;7.82;;;8.70;99.90;;;;;;5114219;28;20033;-70
2022/11/17 04:49:01;;;;;;;12.90;8.73;;;8.70;99.90;;;;;;5113644;28;20053;-70
2022/11/17 04:51:28;;;;;;;10.70;8.45;;;8.70;99.90;;;;;;5114064;28;20076;-70
2022/11/17 04:53:54;;;;;;;12.65;8.38;;;8.70;99.90;;;;;;5112711;28;20460;-70
2022/11/17 04:56:21;;;;;;;10.38;8.32;;;8.70;99.90;;;;;;5113859;28;20032;-69
2022/11/17 04:58:48;;;;;;;11.95;8.77;;;8.70;99.90;;;;;;5113787;28;20029;-69
2022/11/17 05:01:16;;;;;;;12.40;8.05;;;8.60;99.90;;;;;;5113058;28;20051;-70
2022/11/17 05:04:02;;;;;;;11.43;8.65;;;8.60;99.90;;;;;;5113732;28;20091;-69
2022/11/17 05:06:32;;;;;;;12.20;7.75;;;8.60;99.90;;;;;;5113710;28;20020;-69
2022/11/17 05:08:59;;;;;;;11.18;8.68;;;8.60;99.90;;;;;;5112878;28;20352;-70
2022/11/17 05:14:15;;;;;;;11.55;8.05;;;8.60;99.90;;;;;;5101187;28;20055;-70
2022/11/17 05:19:27;;;;;;;10.65;8.15;;;8.60;99.90;;;;;;5113465;28;20038;-69
2022/11/17 05:21:53;;;;;;;9.82;7.88;;;8.60;99.90;;;;;;5113303;28;20070;-86
2022/11/17 05:24:19;;;;;;;12.77;8.60;;;8.50;99.90;;;;;;5113453;28;20031;-70
2022/11/17 05:26:46;;;;;;;9.80;7.72;;;8.60;99.90;;;;;;5113307;28;20028;-70
2022/11/17 05:29:14;;;;;;;11.43;8.52;;;8.50;99.90;;;;;;5112881;28;20137;-70
2022/11/17 05:31:40;;;;;;;13.52;10.30;;;8.50;99.90;;;;;;5113178;28;20023;-69
2022/11/17 05:34:08;;;;;;;12.68;8.85;;;8.50;99.90;;;;;;5112190;28;20350;-70
2022/11/17 05:36:34;;;;;;;12.02;8.23;;;8.50;99.90;;;;;;5113281;28;20372;-70
2022/11/17 05:39:00;;;;;;;10.55;8.25;;;8.50;99.90;;;;;;5111344;28;20031;-69
2022/11/17 05:41:27;;;;;;;13.23;8.90;;;8.50;99.90;;;;;;5113121;28;20028;-69
2022/11/17 05:43:53;;;;;;;13.07;8.50;;;8.40;99.90;;;;;;5113008;28;20036;-69
2022/11/17 05:46:20;;;;;;;12.43;8.75;;;8.40;99.90;;;;;;5112839;28;20076;-69
2022/11/17 05:48:50;;;;;;;12.52;9.00;;;8.40;99.90;;;;;;5113089;28;20031;-69
2022/11/17 05:51:17;;;;;;;11.93;8.77;;;8.40;99.90;;;;;;5112511;28;20050;-69
2022/11/17 05:53:43;;;;;;;13.63;9.13;;;8.40;99.90;;;;;;5112933;28;20440;-70
2022/11/17 05:56:21;;;;;;;12.20;9.45;;;8.40;99.90;;;;;;5112556;28;20059;-71
2022/11/17 05:58:51;;;;;;;11.30;8.65;;;8.40;99.90;;;;;;5113018;28;20026;-71
2022/11/17 06:01:19;;;;;;;12.27;8.87;;;8.30;99.90;;;;;;5112569;28;20483;-70
2022/11/17 06:03:50;;;;;;;14.68;9.88;;;8.30;99.90;;;;;;5113554;28;20488;-70
2022/11/17 06:06:16;;;;;;;;;;;8.30;99.90;;;;;;5114982;28;20237;-71
2022/11/17 06:08:41;;;;;;;13.00;9.50;;;8.30;99.90;;;;;;5114182;28;19904;-70
2022/11/17 06:11:07;;;;;;;14.43;9.60;;;8.30;99.90;;;;;;5114406;28;20032;-70
2022/11/17 06:13:33;;;;;;;12.35;9.18;;;8.30;99.90;;;;;;5111478;28;20042;-70
2022/11/17 06:16:02;;;;;;;14.13;9.55;;;8.30;99.90;;;;;;5112170;28;20035;-80
2022/11/17 06:18:36;;;;;;;14.30;9.80;;;8.30;99.90;;;;;;5112442;28;20024;-70
2022/11/17 06:21:02;;;;;;;14.73;8.57;;;8.30;99.90;;;;;;5111684;28;20026;-70
2022/11/17 06:23:32;;;;;;;10.88;8.65;;;8.30;99.90;;;;;;5112610;28;20023;-70
2022/11/17 06:26:04;;;;;;;11.20;8.60;;;8.30;99.90;;;;;;5112464;28;20016;-70
2022/11/17 06:28:32;;;;;;;12.20;8.77;;;8.30;99.90;;;;;;5111200;28;20068;-72
2022/11/17 06:30:58;;;;;;;13.15;9.23;;;8.30;99.90;;;;;;5112409;28;20103;-70
2022/11/17 06:33:27;;;;;;;11.77;8.65;;;8.30;99.90;;;;;;5112213;28;20042;-69
2022/11/17 06:35:53;;;;;;;12.57;8.48;;;8.30;99.90;;;;;;5112003;28;20044;-71
2022/11/17 06:38:19;;;;;;;12.93;9.30;;;8.30;99.90;;;;;;5110734;28;20151;-71
2022/11/17 06:40:44;;;;;;;15.73;9.65;;;8.30;99.90;;;;;;5111167;28;20480;-71
2022/11/17 06:43:10;;;;;;;15.00;10.57;;;8.30;99.90;;;;;;5110912;28;20024;-71
2022/11/17 06:45:38;;;;;;;14.98;10.00;;;8.40;99.90;;;;;;5111173;28;20080;-75
2022/11/17 06:48:05;;;;;;;14.95;10.13;;;8.40;99.90;;;;;;5110378;28;20036;-70
2022/11/17 06:50:32;;;;;;;12.70;10.13;;;8.40;99.90;;;;;;5110578;28;20499;-70
2022/11/17 06:53:00;;;;;;;17.90;10.98;;;8.40;99.90;;;;;;5111178;28;20063;-70
2022/11/17 06:55:26;;;;;;;18.83;10.63;;;8.40;99.90;;;;;;5113688;28;20030;-70
2022/11/17 06:58:01;;;;;;;15.30;10.73;;;8.40;99.90;;;;;;5115089;28;20020;-70
2022/11/17 07:00:28;;;;;;;15.68;10.63;;;8.40;99.90;;;;;;5111669;28;20062;-69
2022/11/17 07:03:06;;;;;;;16.27;10.90;;;8.50;99.90;;;;;;5114809;28;20030;-69
2022/11/17 07:05:33;;;;;;;15.30;10.95;;;8.50;99.90;;;;;;5115307;28;20112;-70
2022/11/17 07:08:00;;;;;;;17.63;11.23;;;8.50;99.90;;;;;;5115994;28;20092;-71
2022/11/17 07:10:27;;;;;;;19.90;11.38;;;8.50;99.90;;;;;;5112937;28;20456;-69
2022/11/17 07:12:53;;;;;;;18.30;12.35;;;8.50;99.90;;;;;;5115523;28;20050;-70
2022/11/17 07:15:19;;;;;;;19.35;11.52;;;8.60;99.90;;;;;;5114956;28;20494;-70
2022/11/17 07:17:45;;;;;;;17.67;11.70;;;8.60;99.90;;;;;;5115443;28;20020;-70
2022/11/17 07:20:12;;;;;;;19.30;12.05;;;8.60;99.90;;;;;;5114946;28;20076;-70
2022/11/17 07:22:40;;;;;;;22.13;11.95;;;8.60;99.90;;;;;;5115021;28;20111;-69
2022/11/17 07:25:06;;;;;;;19.17;11.32;;;8.70;99.90;;;;;;5112658;28;20119;-69
2022/11/17 07:27:32;;;;;;;20.23;11.93;;;8.70;99.90;;;;;;5113662;28;20023;-71
2022/11/17 07:29:57;;;;;;;13.90;10.38;;;8.70;99.90;;;;;;5115140;28;20084;-70
2022/11/17 07:32:23;;;;;;;17.00;11.63;;;8.70;99.90;;;;;;5115300;28;20027;-70
2022/11/17 07:34:49;;;;;;;15.00;10.63;;;8.70;99.90;;;;;;5115151;28;20084;-71
2022/11/17 07:37:15;;;;;;;19.92;11.43;;;8.80;99.90;;;;;;5115035;28;20020;-71
2022/11/17 07:39:41;;;;;;;15.73;11.00;;;8.90;99.90;;;;;;5115455;28;20128;-70
2022/11/17 07:42:07;;;;;;;15.23;10.52;;;9.00;99.90;;;;;;5115026;28;20468;-71
2022/11/17 07:44:33;;;;;;;15.82;11.25;;;9.00;99.90;;;;;;5115292;28;20065;-70
2022/11/17 07:46:59;;;;;;;15.38;11.15;;;9.00;99.90;;;;;;5114937;28;20497;-71
2022/11/17 07:49:25;;;;;;;15.70;10.65;;;9.10;99.90;;;;;;5114940;28;20031;-70
2022/11/17 07:51:51;;;;;;;14.98;11.40;;;9.20;99.90;;;;;;5114855;28;20038;-71
2022/11/17 07:54:17;;;;;;;16.13;10.73;;;9.30;99.90;;;;;;5114005;28;20023;-71
2022/11/17 07:56:42;;;;;;;18.90;10.82;;;9.40;99.90;;;;;;5114782;28;20030;-72
2022/11/17 07:59:08;;;;;;;13.95;9.88;;;9.50;99.90;;;;;;5112696;28;20032;-70
2022/11/17 08:01:34;;;;;;;19.33;10.85;;;9.50;99.90;;;;;;5114729;28;20108;-69
2022/11/17 08:03:59;;;;;;;16.40;10.93;;;9.60;99.90;;;;;;5113614;28;20498;-71
2022/11/17 08:06:25;;;;;;;12.98;9.10;;;9.60;99.90;;;;;;5114481;28;20096;-71
2022/11/17 08:08:52;;;;;;;17.30;11.40;;;9.70;99.90;;;;;;5114859;28;20020;-69
2022/11/17 08:11:18;;;;;;;16.55;11.18;;;9.70;99.90;;;;;;5114517;28;20068;-70
2022/11/17 08:13:44;;;;;;;16.85;11.30;;;9.70;99.90;;;;;;5114750;28;20040;-70
2022/11/17 08:16:10;;;;;;;17.70;12.35;;;9.80;99.90;;;;;;5113441;28;20079;-70
2022/11/17 08:18:36;;;;;;;14.15;11.07;;;9.80;99.90;;;;;;5112274;28;20019;-70
2022/11/17 08:21:11;;;;;;;16.70;11.65;;;9.90;99.90;;;;;;5114416;28;20038;-70
2022/11/17 08:23:37;;;;;;;15.73;11.68;;;9.90;99.90;;;;;;5114694;28;20461;-70
2022/11/17 08:26:04;;;;;;;13.30;10.25;;;9.90;99.90;;;;;;5114288;28;20027;-70
2022/11/17 08:28:30;;;;;;;18.70;11.82;;;9.90;99.90;;;;;;5113656;28;20034;-70
2022/11/17 08:30:56;;;;;;;15.23;11.10;;;10.00;99.90;;;;;;5114026;28;20183;-71
2022/11/17 08:33:21;;;;;;;14.07;9.98;;;9.90;99.90;;;;;;5113408;28;20063;-70
2022/11/17 08:35:47;;;;;;;20.67;10.48;;;10.00;99.90;;;;;;5114516;28;20044;-71
2022/11/17 08:38:17;;;;;;;15.27;10.48;;;10.00;99.90;;;;;;5114097;28;20114;-70
2022/11/17 08:40:42;;;;;;;13.55;9.45;;;10.00;99.90;;;;;;5114326;28;20023;-70
2022/11/17 08:43:08;;;;;;;12.27;9.02;;;10.00;99.90;;;;;;5114039;28;20441;-70
2022/11/17 08:45:34;;;;;;;14.75;10.70;;;9.90;99.90;;;;;;5114400;28;20026;-71
2022/11/17 08:47:59;;;;;;;14.02;9.40;;;9.90;99.90;;;;;;5114479;28;20416;-71
2022/11/17 08:50:25;;;;;;;15.05;10.70;;;10.00;99.90;;;;;;5112709;28;20379;-70
2022/11/17 08:52:52;;;;;;;13.88;10.07;;;10.00;99.90;;;;;;5114174;28;20463;-70
2022/11/17 08:55:17;;;;;;;14.60;9.55;;;10.00;99.90;;;;;;5113543;28;20098;-70
2022/11/17 08:57:43;;;;;;;11.80;9.18;;;9.90;99.90;;;;;;5114024;28;20107;-70
2022/11/17 09:00:09;;;;;;;15.38;10.05;;;9.90;99.90;;;;;;5113610;28;20031;-71
2022/11/17 09:02:37;;;;;;;14.25;9.20;;;9.90;99.90;;;;;;5113745;28;20458;-70
2022/11/17 09:05:03;;;;;;;11.00;9.07;;;10.00;99.90;;;;;;5113226;28;20016;-71
2022/11/17 09:07:33;;;;;;;11.82;8.93;;;10.00;99.90;;;;;;5113427;28;20456;-71
2022/11/17 09:09:59;;;;;;;13.73;8.82;;;10.10;99.90;;;;;;5113564;28;20034;-72
2022/11/17 09:12:25;;;;;;;13.90;8.73;;;10.20;99.90;;;;;;5112856;28;20087;-71
2022/11/17 09:14:51;;;;;;;11.48;8.82;;;10.20;99.90;;;;;;5112871;28;20102;-71
2022/11/17 09:17:16;;;;;;;11.82;8.32;;;10.20;99.90;;;;;;5113206;28;20070;-71
2022/11/17 09:19:42;;;;;;;13.85;8.05;;;10.30;99.90;;;;;;5113643;28;20330;-71
2022/11/17 09:22:08;;;;;;;12.48;8.43;;;10.30;99.90;;;;;;5112267;28;20380;-86
2022/11/17 09:24:33;;;;;;;13.07;8.35;;;10.20;99.90;;;;;;5113539;28;20492;-71
2022/11/17 09:27:01;;;;;;;13.50;8.98;;;10.20;99.90;;;;;;5113367;28;20118;-71
2022/11/17 09:29:27;;;;;;;13.88;9.02;;;10.10;99.90;;;;;;5112870;28;20045;-71
2022/11/17 09:31:53;;;;;;;13.05;8.77;;;10.10;99.90;;;;;;5112902;28;20028;-71
2022/11/17 09:34:18;;;;;;;13.40;10.00;;;10.00;99.90;;;;;;5112506;28;20595;-72
2022/11/17 09:36:44;;;;;;;15.15;9.77;;;10.00;99.90;;;;;;5113187;28;20051;-71
2022/11/17 09:39:10;;;;;;;14.80;10.45;;;10.00;99.90;;;;;;5112332;28;20118;-72
2022/11/17 09:41:46;;;;;;;19.88;11.93;;;10.00;99.90;;;;;;5113159;28;20092;-71
2022/11/17 09:44:35;;;;;;;15.45;11.57;;;9.90;99.90;;;;;;5112716;28;20041;-71
2022/11/17 09:47:15;;;;;;;16.77;12.30;;;9.90;99.90;;;;;;5113286;28;20051;-71
2022/11/17 09:49:56;;;;;;;18.50;11.93;;;9.80;99.90;;;;;;5112021;28;20478;-72
2022/11/17 09:52:39;;;;;;;19.67;13.07;;;9.80;99.90;;;;;;5111367;28;20345;-71
2022/11/17 09:55:07;;;;;;;20.10;12.07;;;9.70;99.90;;;;;;5113099;28;20028;-71
2022/11/17 09:57:42;;;;;;;21.13;12.45;;;9.70;99.90;;;;;;5112413;28;20027;-71
2022/11/17 10:00:18;;;;;;;16.85;11.50;;;9.60;99.90;;;;;;5112955;28;20035;-71
2022/11/17 10:02:44;;;;;;;15.77;11.65;;;9.60;99.90;;;;;;5112840;28;20023;-71
2022/11/17 10:05:31;;;;;;;17.42;11.27;;;9.60;99.90;;;;;;5111598;28;20371;-71
2022/11/17 10:08:07;;;;;;;17.40;12.32;;;9.50;99.90;;;;;;5112686;28;20027;-72
2022/11/17 10:10:38;;;;;;;18.60;12.88;;;9.50;99.90;;;;;;5111173;28;20107;-71
2022/11/17 10:13:10;;;;;;;20.85;14.48;;;9.50;99.90;;;;;;5112908;28;20034;-70
2022/11/17 10:15:48;;;;;;;24.48;15.95;;;9.50;99.90;;;;;;5113296;28;20066;-71
2022/11/17 10:18:14;;;;;;;31.15;16.88;;;9.50;99.90;;;;;;5112129;28;20059;-71
2022/11/17 10:20:42;;;;;;;25.65;16.80;;;9.40;99.90;;;;;;5112300;28;20100;-71
2022/11/17 10:23:13;;;;;;;27.33;16.02;;;9.40;99.90;;;;;;5092383;28;20024;-71
2022/11/17 10:25:45;;;;;;;28.83;16.08;;;9.40;99.90;;;;;;5092389;28;20115;-71
2022/11/17 10:28:30;;;;;;;26.52;15.98;;;9.40;99.90;;;;;;5095518;28;20031;-71
2022/11/17 10:31:11;;;;;;;30.05;15.35;;;9.30;99.90;;;;;;5096874;28;20036;-70
2022/11/17 10:33:42;;;;;;;21.38;14.45;;;9.30;99.90;;;;;;5095593;28;20028;-70
2022/11/17 10:36:18;;;;;;;;;;;9.30;99.90;;;;;;5097091;28;20030;-71
2022/11/17 10:38:49;;;;;;;27.83;15.05;;;9.30;99.90;;;;;;5096075;28;19986;-71
2022/11/17 10:41:25;;;;;;;27.40;15.27;;;9.30;99.90;;;;;;5095721;28;20024;-72
2022/11/17 10:44:15;;;;;;;24.17;15.57;;;9.30;99.90;;;;;;5096302;28;20039;-71
2022/11/17 10:47:06;;;;;;;26.70;17.35;;;9.20;99.90;;;;;;5095794;28;20062;-71
2022/11/17 10:49:34;;;;;;;24.27;16.02;;;9.20;99.90;;;;;;5095856;28;20424;-71
2022/11/17 10:52:16;;;;;;;26.52;17.00;;;9.20;99.90;;;;;;5095872;28;20115;-70
2022/11/17 10:54:42;;;;;;;24.60;16.27;;;9.10;99.90;;;;;;5096207;28;20059;-71
2022/11/17 10:57:23;;;;;;;28.48;17.38;;;9.10;99.90;;;;;;5096030;28;20071;-71
2022/11/17 10:59:57;;;;;;;31.67;17.88;;;9.10;99.90;;;;;;5095407;28;20032;-71
2022/11/17 11:02:30;;;;;;;24.27;15.35;;;9.10;99.90;;;;;;5095002;28;20550;-70
2022/11/17 11:05:14;;;;;;;25.55;16.02;;;9.10;99.90;;;;;;5112228;28;20019;-72
2022/11/17 11:07:40;;;;;;;19.70;13.25;;;9.10;99.90;;;;;;5115517;28;20475;-71
2022/11/17 11:10:17;;;;;;;24.75;15.13;;;9.10;99.90;;;;;;5115910;28;20073;-71
2022/11/17 11:13:20;;;;;;;21.23;14.55;;;9.10;99.90;;;;;;5115472;28;20157;-71
2022/11/17 11:15:47;;;;;;;23.60;13.88;;;9.10;99.90;;;;;;5115349;28;20456;-70
2022/11/17 11:18:15;;;;;;;22.00;13.75;;;9.00;99.90;;;;;;5115735;28;20093;-70
2022/11/17 11:20:46;;;;;;;22.27;13.18;;;9.10;99.90;;;;;;5115203;28;20051;-71
2022/11/17 11:23:47;;;;;;;19.95;13.32;;;9.10;99.90;;;;;;5114230;28;20027;-72
2022/11/17 11:26:37;;;;;;;19.27;12.83;;;9.00;99.90;;;;;;5095498;27;20032;-71
2022/11/17 11:29:44;;;;;;;21.58;12.88;;;9.00;99.90;;;;;;5115989;28;20024;-71
2022/11/17 11:32:30;;;;;;;17.02;12.70;;;9.10;99.90;;;;;;5115625;27;20060;-70
2022/11/17 11:35:03;;;;;;;20.02;12.27;;;9.00;99.90;;;;;;5115476;28;20047;-70
2022/11/17 11:37:42;;;;;;;17.70;11.77;;;9.00;99.90;;;;;;5114739;28;20129;-72
2022/11/17 11:40:33;;;;;;;16.55;11.65;;;9.00;99.90;;;;;;5115407;28;20432;-72
2022/11/17 11:43:11;;;;;;;18.83;12.57;;;8.90;99.90;;;;;;5115124;28;20032;-71
2022/11/17 11:46:04;;;;;;;18.60;12.05;;;9.00;99.90;;;;;;5114666;27;20023;-71
2022/11/17 11:48:33;;;;;;;19.95;12.57;;;9.00;99.90;;;;;;5115304;28;20111;-71
2022/11/17 11:51:04;;;;;;;20.52;11.77;;;9.00;99.90;;;;;;5114114;28;20032;-71
2022/11/17 11:53:56;;;;;;;16.77;11.52;;;9.00;99.90;;;;;;5115123;28;20063;-71
2022/11/17 11:56:29;;;;;;;17.35;11.70;;;9.00;99.90;;;;;;5114949;28;20026;-71
2022/11/17 11:58:59;;;;;;;19.88;11.63;;;9.00;99.90;;;;;;5115292;28;20024;-72
2022/11/17 12:01:27;;;;;;;18.40;11.87;;;9.10;99.90;;;;;;5114626;28;20080;-72
2022/11/17 12:04:33;;;;;;;17.10;11.45;;;9.10;99.90;;;;;;5114695;28;20055;-71
2022/11/17 12:07:04;;;;;;;17.50;11.65;;;9.10;99.90;;;;;;5085407;28;20035;-71
2022/11/17 12:09:46;;;;;;;15.45;10.65;;;9.10;99.90;;;;;;5114238;28;20027;-71
2022/11/17 12:12:18;;;;;;;17.60;11.27;;;9.10;99.90;;;;;;5114747;28;20024;-71
2022/11/17 12:15:19;;;;;;;16.17;10.90;;;9.10;99.90;;;;;;5114333;28;20102;-71
2022/11/17 12:17:58;;;;;;;16.30;10.80;;;9.10;99.90;;;;;;5108686;28;20078;-71
2022/11/17 12:20:34;;;;;;;14.80;10.32;;;9.10;99.90;;;;;;5114143;28;20030;-70
2022/11/17 12:23:36;;;;;;;13.25;9.73;;;9.20;99.90;;;;;;5114692;28;20035;-71
2022/11/17 12:26:03;;;;;;;13.25;10.25;;;9.20;99.90;;;;;;5114545;28;20024;-71
2022/11/17 12:28:34;;;;;;;12.77;9.43;;;9.10;99.90;;;;;;5113667;28;20038;-70
2022/11/17 12:31:04;;;;;;;13.73;9.40;;;9.20;99.90;;;;;;5114288;28;20067;-72
2022/11/17 12:33:52;;;;;;;12.00;9.60;;;9.10;99.90;;;;;;5113686;28;20471;-71
2022/11/17 12:36:25;;;;;;;12.15;9.23;;;9.20;99.90;;;;;;5113985;28;20496;-71
2022/11/17 12:38:51;;;;;;;13.57;9.27;;;9.20;99.90;;;;;;5114482;28;20464;-70
2022/11/17 12:41:48;;;;;;;12.32;8.77;;;9.20;99.90;;;;;;5113964;28;20027;-71
2022/11/17 12:44:35;;;;;;;12.48;9.00;;;9.20;99.90;;;;;;5114032;28;20095;-70
2022/11/17 12:47:11;;;;;;;14.68;9.45;;;9.20;99.90;;;;;;5114222;28;20384;-71
2022/11/17 12:50:06;;;;;;;11.60;8.88;;;9.10;99.90;;;;;;5111702;28;20028;-71
2022/11/17 12:52:57;;;;;;;12.38;9.07;;;9.10;99.90;;;;;;5085132;28;20039;-71
2022/11/17 12:55:31;;;;;;;13.57;8.65;;;9.10;99.90;;;;;;5114051;28;20035;-71
2022/11/17 12:58:20;;;;;;;11.00;9.02;;;9.10;99.90;;;;;;5113780;28;20027;-70
2022/11/17 13:00:52;;;;;;;12.45;8.77;;;9.10;99.90;;;;;;5113084;28;20068;-71
2022/11/17 13:03:36;;;;;;;12.93;9.45;;;9.10;99.90;;;;;;5113791;28;20027;-70
2022/11/17 13:06:16;;;;;;;12.65;8.80;;;9.00;99.90;;;;;;5113754;28;20063;-71
2022/11/17 13:09:10;;;;;;;12.98;9.40;;;9.00;99.90;;;;;;5113298;28;20035;-71
2022/11/17 13:11:36;;;;;;;13.80;8.68;;;9.00;99.90;;;;;;5111897;28;20047;-71
2022/11/17 13:14:20;;;;;;;13.23;8.63;;;9.00;99.90;;;;;;5113426;28;20035;-71
2022/11/17 13:16:48;;;;;;;10.57;8.07;;;8.90;99.90;;;;;;5112099;28;20039;-71
2022/11/17 13:19:38;;;;;;;11.27;8.52;;;8.90;99.90;;;;;;5113697;28;20063;-71
2022/11/17 13:22:16;;;;;;;13.30;8.88;;;8.90;99.90;;;;;;5113604;28;20460;-71
2022/11/17 13:24:47;;;;;;;12.10;8.02;;;8.90;99.90;;;;;;5113232;28;20023;-71
2022/11/17 13:27:23;;;;;;;9.48;7.65;;;8.90;99.90;;;;;;5113442;28;20051;-71
2022/11/17 13:29:50;;;;;;;14.13;8.10;;;8.90;99.90;;;;;;5113056;28;20035;-71
2022/11/17 13:32:22;;;;;;;12.18;8.82;;;8.90;99.90;;;;;;5113150;28;20058;-71
2022/11/17 13:34:51;;;;;;;10.82;7.85;;;8.90;99.90;;;;;;5112323;28;20211;-71
2022/11/17 13:37:23;;;;;;;10.65;7.80;;;8.80;99.90;;;;;;5113231;28;20367;-71